• Join FlightAware (Why Join?)
  • Login
  • US Flag 
11:14AM EST


 

Airport Tracker/Info


-or-


 

Live Flight TrackerFlight Track Log ✈ EJA831 ✈ 29-Sep-2013 ✈ KSNA - KLAS

Flight Track Log - Related Links

Times and Time Zones

All times are in EDT time to prevent confusion due to time zone crossing. See the EJA831 flight status page for this flight to view local times or setup timezone preferences in your user account.

Time Position Orientation Groundspeed Altitude Reporting Facility
EDT Latitude Longitude Course Direction KTS MPH feet Rate Location/Type
03:23PM 33.6458 -117.8869 48° Northeast 201 231 1,500  Level Los Angeles Center
03:24PM 33.5894 -117.9011 192° South 206 237 3,900 2,220 Climbing Los Angeles Center
03:25PM 33.5294 -117.9342 205° Southwest 223 257 6,100 1,680 Climbing Los Angeles Center
03:26PM 33.5069 -118.0064 250° West 235 270 7,400 1,440 Climbing Los Angeles Center
03:27PM 33.5303 -118.0797 291° West 236 272 9,100 1,140 Climbing Los Angeles Center
03:28PM 34.1104 -117.7251 48° Northeast  Level FlightAware Approximate
03:28PM 33.5947 -118.1286 328° Northwest 285 328 10,000  Level Los Angeles Center
03:29PM 33.6892 -118.1122 North 314 361 12,300 2,400 Climbing Los Angeles Center
03:30PM 33.7817 -118.0544 27° Northeast 316 364 15,100 2,700 Climbing Los Angeles Center
03:31PM 33.8544 -117.9906 36° Northeast 324 373 17,900 2,460 Climbing Los Angeles Center
03:32PM 33.9289 -117.9228 37° Northeast 335 386 20,200 2,100 Climbing Los Angeles Center
03:33PM 34.0069 -117.8533 36° Northeast 348 400 22,300 1,320 Climbing Los Angeles Center
03:34PM 34.0708 -117.7942 37° Northeast 358 412 23,000 300 Climbing Los Angeles Center
03:35PM 34.1753 -117.6569 47° Northeast 397 457 23,000  Level Los Angeles Center
03:36PM 34.2522 -117.5539 48° Northeast 411 473 23,000 -420 Level Los Angeles Center
03:37PM 34.3322 -117.4439 49° Northeast 417 480 22,200 -1,140 Descending Los Angeles Center
03:38PM 34.4078 -117.3419 48° Northeast 409 471 20,700 -1,500 Descending Los Angeles Center
03:39PM 34.4800 -117.2419 49° Northeast 400 460 19,200 -840 Descending Los Angeles Center
03:40PM 34.5525 -117.1436 48° Northeast 396 456 19,000 -120 Descending Los Angeles Center
03:41PM 34.6381 -117.0258 49° Northeast 391 450 19,000  Level Los Angeles Center
03:42PM 34.7094 -116.9261 49° Northeast 393 452 19,000  Level Los Angeles Center
03:44PM 34.7811 -116.8281 48° Northeast 391 450 19,000  Level Los Angeles Center
03:45PM 34.8531 -116.7286 49° Northeast 393 452 19,000  Level Los Angeles Center
03:46PM 34.9233 -116.6294 49° Northeast 391 450 19,000  Level Los Angeles Center
03:47PM 35.0108 -116.5136 47° Northeast 389 448 19,000  Level Los Angeles Center
03:48PM 35.0875 -116.4197 45° Northeast 389 448 19,000  Level Los Angeles Center
03:49PM 35.1636 -116.3258 45° Northeast 390 449 19,000  Level Los Angeles Center
03:50PM 35.2389 -116.2300 46° Northeast 391 450 19,000  Level Los Angeles Center
03:51PM 35.3133 -116.1344 46° Northeast 391 450 19,000  Level Los Angeles Center
03:52PM 35.3889 -116.0397 46° Northeast 389 448 19,000 -300 Level Los Angeles Center
03:53PM 35.4836 -115.9264 44° Northeast 389 448 18,400 -1,020 Descending Los Angeles Center
03:53PM 35.4925 -115.9081 59° Northeast 385 443 18,000 -2,220 Descending Los Angeles Center
03:54PM 35.5519 -115.8414 42° Northeast 384 442 16,400 -1,860 Descending Los Angeles Center
03:54PM 35.5611 -115.8217 60° Northeast 383 441 16,100 -1,980 Descending Los Angeles Center
03:55PM 35.6231 -115.7500 43° Northeast 374 430 14,400 -2,100 Descending Los Angeles Center
03:55PM 35.6433 -115.7161 54° Northeast 360 414 13,900 -1,680 Descending Los Angeles Center
03:56PM 35.6656 -115.6467 68° East 328 377 12,700 -1,680 Descending Los Angeles Center
03:56PM 35.6711 -115.6122 79° East 327 376 12,200 -1,680 Descending Los Angeles Center
03:57PM 35.6903 -115.5408 72° East 322 371 11,000 -1,680 Descending Los Angeles Center
03:57PM 35.6958 -115.5083 78° East 320 368 10,500 -1,800 Descending Los Angeles Center
03:58PM 35.7383 -115.4431 51° Northeast 316 364 9,000 -1,680 Descending Los Angeles Center
03:58PM 35.7508 -115.4319 36° Northeast 319 367 8,800 -1,140 Descending Los Angeles Center
03:59PM 35.8044 -115.3900 32° Northeast 301 346 8,000 -780 Descending Los Angeles Center
03:59PM 35.8181 -115.3744 43° Northeast 308 354 8,000 -540 Level Los Angeles Center
04:00PM 35.8669 -115.3483 23° Northeast 260 299 7,500 -1,260 Descending Los Angeles Center
04:00PM 35.8953 -115.3306 27° Northeast 276 318 6,700 -1,800 Descending Los Angeles Center
04:01PM 35.9333 -115.3161 17° North 245 282 5,700 -1,560 Descending Los Angeles Center
04:01PM 35.9581 -115.3019 25° Northeast 257 296 5,100 -1,620 Descending Los Angeles Center
04:02PM 35.9981 -115.2869 17° North 257 296 4,100 -300 Descending Los Angeles Center
04:02PM 36.0197 -115.2733 27° Northeast 255 293 4,800 -420 Climbing Los Angeles Center
04:03PM 36.0597 -115.2614 14° North 203 234 3,700 -1,140 Descending Los Angeles Center
04:04PM 36.0719 -115.2231 68° East 147 169 3,200 -720 Descending Los Angeles Center
04:04PM 36.0731 -115.2144 81° East 133 153 3,000 -600 Descending Los Angeles Center
04:05PM 36.0750 -115.1761 86° East 132 152 2,600 -600 Descending Los Angeles Center
04:05PM 36.0731 -115.1744 145° Southeast 106 122 2,400 -1,740 Descending Los Angeles Center
04:07PM 36.0801 -115.1523 90° East  Level Estimated